PH-0079 weather

Plaridel Airport Heliport
Plaridel, Philippines

Public forecast

Using degrees Celsius for public forecast. Weather courtesy of forecast.io.

METAR (pilot weather report)

Closest report is Diosdado Macapagal International Airport, 24.5 nm (45.4 km) NW. Retrieved 2019/07/16 04:00 UTC (1 minute ago):

RPLC 160400Z 01002KT 4000 -RA SCT020 OVC100 29/25 Q1005 NOSIG RMK A2968

TAF (pilot weather forecast)

Forecast is more than 12 hours old.

Closest forecast is Diosdado Macapagal International Airport, 24.5 nm (45.4 km) NW. Retrieved 2019/07/15 00:03 UTC (1 day ago):

TAF RPLC 152300Z 1600/1706 25006KT 8000 SCT020 BKN100 TX33/1606Z TN24/1622Z TEMPO 1600/1606 28008KT 6000 TS -SHRA FEW015CB SCT020 BKN100